sensor_id;sensor_type;location;lat;lon;timestamp;P1;durP1;ratioP1;P2;durP2;ratioP2
3677;SDS011;1855;50.934;6.958;2023-01-01T00:01:05;22.02;;;19.95;;
3677;SDS011;1855;50.934;6.958;2023-01-01T00:03:32;23.35;;;21.15;;
3677;SDS011;1855;50.934;6.958;2023-01-01T00:06:03;17.27;;;15.52;;
3677;SDS011;1855;50.934;6.958;2023-01-01T00:08:32;16.05;;;14.43;;
3677;SDS011;1855;50.934;6.958;2023-01-01T00:11:00;13.63;;;12.30;;
3677;SDS011;1855;50.934;6.958;2023-01-01T00:13:27;18.48;;;11.90;;
3677;SDS011;1855;50.934;6.958;2023-01-01T00:15:53;12.85;;;10.90;;
3677;SDS011;1855;50.934;6.958;2023-01-01T00:18:20;12.75;;;10.25;;
3677;SDS011;1855;50.934;6.958;2023-01-01T00:20:47;11.60;;;9.40;;
3677;SDS011;1855;50.934;6.958;2023-01-01T00:23:14;9.88;;;8.98;;
3677;SDS011;1855;50.934;6.958;2023-01-01T00:25:42;9.90;;;8.23;;
3677;SDS011;1855;50.934;6.958;2023-01-01T00:28:09;9.40;;;8.00;;
3677;SDS011;1855;50.934;6.958;2023-01-01T00:30:38;10.35;;;7.90;;
3677;SDS011;1855;50.934;6.958;2023-01-01T00:33:05;9.80;;;7.30;;
3677;SDS011;1855;50.934;6.958;2023-01-01T00:35:32;9.70;;;6.28;;
3677;SDS011;1855;50.934;6.958;2023-01-01T00:37:59;8.35;;;5.93;;
3677;SDS011;1855;50.934;6.958;2023-01-01T00:40:26;7.13;;;5.80;;
3677;SDS011;1855;50.934;6.958;2023-01-01T00:42:54;6.68;;;5.20;;
3677;SDS011;1855;50.934;6.958;2023-01-01T00:45:21;5.70;;;4.90;;
3677;SDS011;1855;50.934;6.958;2023-01-01T00:47:47;7.00;;;4.90;;
3677;SDS011;1855;50.934;6.958;2023-01-01T00:50:14;7.43;;;4.80;;
3677;SDS011;1855;50.934;6.958;2023-01-01T00:52:41;7.60;;;4.10;;
3677;SDS011;1855;50.934;6.958;2023-01-01T00:55:08;4.28;;;3.67;;
3677;SDS011;1855;50.934;6.958;2023-01-01T00:57:35;5.43;;;3.78;;
3677;SDS011;1855;50.934;6.958;2023-01-01T01:00:04;4.07;;;2.90;;
3677;SDS011;1855;50.934;6.958;2023-01-01T01:02:32;3.70;;;2.90;;
3677;SDS011;1855;50.934;6.958;2023-01-01T01:04:59;4.57;;;2.90;;
3677;SDS011;1855;50.934;6.958;2023-01-01T01:07:27;3.63;;;3.00;;
3677;SDS011;1855;50.934;6.958;2023-01-01T01:09:59;3.80;;;3.00;;
3677;SDS011;1855;50.934;6.958;2023-01-01T01:12:26;6.20;;;3.10;;
3677;SDS011;1855;50.934;6.958;2023-01-01T01:14:53;3.60;;;3.00;;
3677;SDS011;1855;50.934;6.958;2023-01-01T01:17:21;3.55;;;2.50;;
3677;SDS011;1855;50.934;6.958;2023-01-01T01:19:47;3.50;;;2.80;;
3677;SDS011;1855;50.934;6.958;2023-01-01T01:22:14;3.87;;;2.60;;
3677;SDS011;1855;50.934;6.958;2023-01-01T01:24:41;3.93;;;2.70;;
3677;SDS011;1855;50.934;6.958;2023-01-01T01:27:08;3.90;;;2.53;;
3677;SDS011;1855;50.934;6.958;2023-01-01T01:29:34;3.63;;;2.73;;
3677;SDS011;1855;50.934;6.958;2023-01-01T01:32:01;2.85;;;2.20;;
3677;SDS011;1855;50.934;6.958;2023-01-01T01:34:29;2.95;;;2.38;;
3677;SDS011;1855;50.934;6.958;2023-01-01T01:36:56;3.65;;;2.40;;
3677;SDS011;1855;50.934;6.958;2023-01-01T01:39:23;3.40;;;2.58;;
3677;SDS011;1855;50.934;6.958;2023-01-01T01:41:50;3.38;;;1.98;;
3677;SDS011;1855;50.934;6.958;2023-01-01T01:47:13;3.50;;;2.10;;
3677;SDS011;1855;50.934;6.958;2023-01-01T01:49:43;3.27;;;2.00;;
3677;SDS011;1855;50.934;6.958;2023-01-01T01:52:11;2.58;;;1.90;;
3677;SDS011;1855;50.934;6.958;2023-01-01T01:54:38;2.33;;;1.70;;
3677;SDS011;1855;50.934;6.958;2023-01-01T01:57:06;2.70;;;1.60;;
3677;SDS011;1855;50.934;6.958;2023-01-01T01:59:39;5.25;;;1.83;;
3677;SDS011;1855;50.934;6.958;2023-01-01T02:02:09;3.08;;;1.50;;
3677;SDS011;1855;50.934;6.958;2023-01-01T02:04:41;2.55;;;1.40;;
3677;SDS011;1855;50.934;6.958;2023-01-01T02:07:09;2.30;;;1.80;;
3677;SDS011;1855;50.934;6.958;2023-01-01T02:09:37;2.50;;;1.70;;
3677;SDS011;1855;50.934;6.958;2023-01-01T02:12:04;3.70;;;2.70;;
3677;SDS011;1855;50.934;6.958;2023-01-01T02:14:31;3.58;;;2.90;;
3677;SDS011;1855;50.934;6.958;2023-01-01T02:17:00;4.40;;;3.92;;
3677;SDS011;1855;50.934;6.958;2023-01-01T02:19:35;4.18;;;3.60;;
3677;SDS011;1855;50.934;6.958;2023-01-01T02:22:12;3.70;;;3.40;;
3677;SDS011;1855;50.934;6.958;2023-01-01T02:24:47;4.57;;;2.65;;
3677;SDS011;1855;50.934;6.958;2023-01-01T02:27:23;4.97;;;3.65;;
3677;SDS011;1855;50.934;6.958;2023-01-01T02:30:00;3.85;;;2.30;;
3677;SDS011;1855;50.934;6.958;2023-01-01T02:32:30;3.13;;;1.77;;
3677;SDS011;1855;50.934;6.958;2023-01-01T02:35:03;4.03;;;1.60;;
3677;SDS011;1855;50.934;6.958;2023-01-01T02:37:47;2.72;;;1.63;;
3677;SDS011;1855;50.934;6.958;2023-01-01T02:40:18;2.88;;;1.70;;
3677;SDS011;1855;50.934;6.958;2023-01-01T02:42:48;3.50;;;1.67;;
3677;SDS011;1855;50.934;6.958;2023-01-01T02:45:17;3.20;;;1.70;;
3677;SDS011;1855;50.934;6.958;2023-01-01T02:47:44;4.22;;;1.90;;
3677;SDS011;1855;50.934;6.958;2023-01-01T02:50:12;2.20;;;1.60;;
3677;SDS011;1855;50.934;6.958;2023-01-01T02:52:51;2.97;;;1.50;;
3677;SDS011;1855;50.934;6.958;2023-01-01T02:55:31;2.47;;;1.50;;
3677;SDS011;1855;50.934;6.958;2023-01-01T02:58:06;1.75;;;1.40;;
3677;SDS011;1855;50.934;6.958;2023-01-01T03:01:04;2.60;;;1.20;;
3677;SDS011;1855;50.934;6.958;2023-01-01T03:03:39;5.00;;;2.00;;
3677;SDS011;1855;50.934;6.958;2023-01-01T03:06:11;3.08;;;1.58;;
3677;SDS011;1855;50.934;6.958;2023-01-01T03:08:50;4.50;;;1.80;;
3677;SDS011;1855;50.934;6.958;2023-01-01T03:11:24;3.78;;;1.90;;
3677;SDS011;1855;50.934;6.958;2023-01-01T03:13:57;3.10;;;1.60;;
3677;SDS011;1855;50.934;6.958;2023-01-01T03:16:33;2.03;;;1.42;;
3677;SDS011;1855;50.934;6.958;2023-01-01T03:19:04;1.77;;;1.48;;
3677;SDS011;1855;50.934;6.958;2023-01-01T03:21:36;2.40;;;1.40;;
3677;SDS011;1855;50.934;6.958;2023-01-01T03:24:09;3.42;;;1.50;;
3677;SDS011;1855;50.934;6.958;2023-01-01T03:26:41;4.10;;;1.50;;
3677;SDS011;1855;50.934;6.958;2023-01-01T03:29:10;3.30;;;1.50;;
3677;SDS011;1855;50.934;6.958;2023-01-01T03:31:41;2.70;;;1.55;;
3677;SDS011;1855;50.934;6.958;2023-01-01T03:34:10;3.00;;;1.80;;
3677;SDS011;1855;50.934;6.958;2023-01-01T03:36:41;3.60;;;1.80;;
3677;SDS011;1855;50.934;6.958;2023-01-01T03:39:12;4.22;;;1.63;;
3677;SDS011;1855;50.934;6.958;2023-01-01T03:41:42;2.13;;;1.40;;
3677;SDS011;1855;50.934;6.958;2023-01-01T03:44:14;3.38;;;1.58;;
3677;SDS011;1855;50.934;6.958;2023-01-01T03:46:49;3.03;;;1.50;;
3677;SDS011;1855;50.934;6.958;2023-01-01T03:49:16;3.60;;;1.50;;
3677;SDS011;1855;50.934;6.958;2023-01-01T03:51:50;2.40;;;1.40;;
3677;SDS011;1855;50.934;6.958;2023-01-01T03:54:38;4.30;;;1.60;;
3677;SDS011;1855;50.934;6.958;2023-01-01T03:57:12;2.40;;;1.35;;
3677;SDS011;1855;50.934;6.958;2023-01-01T03:59:47;3.87;;;1.70;;
3677;SDS011;1855;50.934;6.958;2023-01-01T04:02:20;3.40;;;1.60;;
3677;SDS011;1855;50.934;6.958;2023-01-01T04:04:50;2.10;;;1.40;;
3677;SDS011;1855;50.934;6.958;2023-01-01T04:07:17;3.37;;;1.60;;
3677;SDS011;1855;50.934;6.958;2023-01-01T04:09:46;2.78;;;1.70;;
3677;SDS011;1855;50.934;6.958;2023-01-01T04:12:15;3.20;;;1.60;;
3677;SDS011;1855;50.934;6.958;2023-01-01T04:14:43;5.13;;;1.90;;
3677;SDS011;1855;50.934;6.958;2023-01-01T04:17:10;2.58;;;1.70;;
3677;SDS011;1855;50.934;6.958;2023-01-01T04:19:39;4.63;;;1.48;;
3677;SDS011;1855;50.934;6.958;2023-01-01T04:22:06;2.50;;;1.40;;
3677;SDS011;1855;50.934;6.958;2023-01-01T04:24:32;2.95;;;1.60;;
3677;SDS011;1855;50.934;6.958;2023-01-01T04:26:59;2.20;;;1.40;;
3677;SDS011;1855;50.934;6.958;2023-01-01T04:29:26;4.40;;;1.50;;
3677;SDS011;1855;50.934;6.958;2023-01-01T04:31:53;5.15;;;1.60;;
3677;SDS011;1855;50.934;6.958;2023-01-01T04:34:19;2.63;;;1.40;;
3677;SDS011;1855;50.934;6.958;2023-01-01T04:36:47;3.05;;;1.60;;
3677;SDS011;1855;50.934;6.958;2023-01-01T04:39:14;2.50;;;1.47;;
3677;SDS011;1855;50.934;6.958;2023-01-01T04:41:42;3.80;;;1.60;;
3677;SDS011;1855;50.934;6.958;2023-01-01T04:44:08;3.95;;;1.80;;
3677;SDS011;1855;50.934;6.958;2023-01-01T04:46:35;2.30;;;1.65;;
3677;SDS011;1855;50.934;6.958;2023-01-01T04:49:02;3.25;;;1.90;;
3677;SDS011;1855;50.934;6.958;2023-01-01T04:51:28;3.63;;;1.83;;
3677;SDS011;1855;50.934;6.958;2023-01-01T04:53:57;2.20;;;1.60;;
3677;SDS011;1855;50.934;6.958;2023-01-01T04:56:24;4.47;;;1.70;;
3677;SDS011;1855;50.934;6.958;2023-01-01T04:58:50;4.65;;;1.83;;
3677;SDS011;1855;50.934;6.958;2023-01-01T05:01:18;4.20;;;1.90;;
3677;SDS011;1855;50.934;6.958;2023-01-01T05:03:46;3.25;;;1.60;;
3677;SDS011;1855;50.934;6.958;2023-01-01T05:06:14;4.93;;;1.85;;
3677;SDS011;1855;50.934;6.958;2023-01-01T05:08:42;4.63;;;1.90;;
3677;SDS011;1855;50.934;6.958;2023-01-01T05:11:12;5.00;;;1.90;;
3677;SDS011;1855;50.934;6.958;2023-01-01T05:13:40;3.03;;;1.60;;
3677;SDS011;1855;50.934;6.958;2023-01-01T05:16:09;4.68;;;1.70;;
3677;SDS011;1855;50.934;6.958;2023-01-01T05:18:37;3.28;;;1.60;;
3677;SDS011;1855;50.934;6.958;2023-01-01T05:21:05;2.40;;;1.60;;
3677;SDS011;1855;50.934;6.958;2023-01-01T05:23:33;3.35;;;1.77;;
3677;SDS011;1855;50.934;6.958;2023-01-01T05:26:07;2.72;;;1.42;;
3677;SDS011;1855;50.934;6.958;2023-01-01T05:28:36;2.42;;;1.83;;
3677;SDS011;1855;50.934;6.958;2023-01-01T05:31:04;2.80;;;1.60;;
3677;SDS011;1855;50.934;6.958;2023-01-01T05:33:32;3.40;;;1.70;;
3677;SDS011;1855;50.934;6.958;2023-01-01T05:35:59;2.80;;;1.73;;
3677;SDS011;1855;50.934;6.958;2023-01-01T05:38:26;3.90;;;1.70;;
3677;SDS011;1855;50.934;6.958;2023-01-01T05:40:53;2.05;;;1.40;;
3677;SDS011;1855;50.934;6.958;2023-01-01T05:43:20;4.00;;;2.22;;
3677;SDS011;1855;50.934;6.958;2023-01-01T05:45:48;3.20;;;1.92;;
3677;SDS011;1855;50.934;6.958;2023-01-01T05:48:24;2.20;;;1.60;;
3677;SDS011;1855;50.934;6.958;2023-01-01T05:50:50;3.60;;;1.70;;
3677;SDS011;1855;50.934;6.958;2023-01-01T05:53:17;3.72;;;1.88;;
3677;SDS011;1855;50.934;6.958;2023-01-01T05:55:44;1.95;;;1.42;;
3677;SDS011;1855;50.934;6.958;2023-01-01T05:58:16;3.40;;;1.90;;
3677;SDS011;1855;50.934;6.958;2023-01-01T06:00:43;2.88;;;2.10;;
3677;SDS011;1855;50.934;6.958;2023-01-01T06:03:11;2.00;;;1.63;;
3677;SDS011;1855;50.934;6.958;2023-01-01T06:05:38;4.55;;;1.85;;
3677;SDS011;1855;50.934;6.958;2023-01-01T06:08:04;3.20;;;1.75;;
3677;SDS011;1855;50.934;6.958;2023-01-01T06:10:31;2.80;;;1.50;;
3677;SDS011;1855;50.934;6.958;2023-01-01T06:12:58;3.55;;;1.70;;
3677;SDS011;1855;50.934;6.958;2023-01-01T06:15:25;4.80;;;1.75;;
3677;SDS011;1855;50.934;6.958;2023-01-01T06:17:51;3.57;;;1.73;;
3677;SDS011;1855;50.934;6.958;2023-01-01T06:20:20;2.50;;;1.70;;
3677;SDS011;1855;50.934;6.958;2023-01-01T06:22:47;3.00;;;1.70;;
3677;SDS011;1855;50.934;6.958;2023-01-01T06:25:13;4.63;;;1.90;;
3677;SDS011;1855;50.934;6.958;2023-01-01T06:27:44;3.97;;;1.70;;
3677;SDS011;1855;50.934;6.958;2023-01-01T06:30:11;4.85;;;2.00;;
3677;SDS011;1855;50.934;6.958;2023-01-01T06:32:38;3.95;;;1.83;;
3677;SDS011;1855;50.934;6.958;2023-01-01T06:35:05;3.03;;;2.05;;
3677;SDS011;1855;50.934;6.958;2023-01-01T06:37:34;3.28;;;2.00;;
3677;SDS011;1855;50.934;6.958;2023-01-01T06:40:01;3.63;;;2.00;;
3677;SDS011;1855;50.934;6.958;2023-01-01T06:42:27;4.10;;;2.10;;
3677;SDS011;1855;50.934;6.958;2023-01-01T06:44:54;3.00;;;2.00;;
3677;SDS011;1855;50.934;6.958;2023-01-01T06:47:21;4.73;;;1.97;;
3677;SDS011;1855;50.934;6.958;2023-01-01T06:49:48;3.10;;;2.10;;
3677;SDS011;1855;50.934;6.958;2023-01-01T06:52:14;4.07;;;1.90;;
3677;SDS011;1855;50.934;6.958;2023-01-01T06:54:42;3.03;;;1.80;;
3677;SDS011;1855;50.934;6.958;2023-01-01T06:57:09;3.55;;;2.10;;
3677;SDS011;1855;50.934;6.958;2023-01-01T06:59:36;3.90;;;2.17;;
3677;SDS011;1855;50.934;6.958;2023-01-01T07:02:02;3.92;;;1.90;;
3677;SDS011;1855;50.934;6.958;2023-01-01T07:04:29;3.38;;;1.90;;
3677;SDS011;1855;50.934;6.958;2023-01-01T07:06:56;3.55;;;2.00;;
3677;SDS011;1855;50.934;6.958;2023-01-01T07:09:25;4.20;;;1.90;;
3677;SDS011;1855;50.934;6.958;2023-01-01T07:11:53;3.38;;;2.10;;
3677;SDS011;1855;50.934;6.958;2023-01-01T07:14:20;3.63;;;2.00;;
3677;SDS011;1855;50.934;6.958;2023-01-01T07:16:46;4.80;;;2.00;;
3677;SDS011;1855;50.934;6.958;2023-01-01T07:19:13;4.65;;;1.73;;
3677;SDS011;1855;50.934;6.958;2023-01-01T07:21:40;5.03;;;2.20;;
3677;SDS011;1855;50.934;6.958;2023-01-01T07:24:09;3.75;;;2.00;;
3677;SDS011;1855;50.934;6.958;2023-01-01T07:26:37;3.65;;;2.20;;
3677;SDS011;1855;50.934;6.958;2023-01-01T07:29:06;4.03;;;1.92;;
3677;SDS011;1855;50.934;6.958;2023-01-01T07:31:33;4.57;;;2.30;;
3677;SDS011;1855;50.934;6.958;2023-01-01T07:34:00;3.63;;;2.10;;
3677;SDS011;1855;50.934;6.958;2023-01-01T07:36:27;3.60;;;2.00;;
3677;SDS011;1855;50.934;6.958;2023-01-01T07:38:54;3.63;;;2.00;;
3677;SDS011;1855;50.934;6.958;2023-01-01T07:41:21;2.78;;;1.83;;
3677;SDS011;1855;50.934;6.958;2023-01-01T07:43:47;2.80;;;1.90;;
3677;SDS011;1855;50.934;6.958;2023-01-01T07:46:15;3.80;;;2.08;;
3677;SDS011;1855;50.934;6.958;2023-01-01T07:48:43;3.03;;;2.00;;
3677;SDS011;1855;50.934;6.958;2023-01-01T07:51:10;5.95;;;1.70;;
3677;SDS011;1855;50.934;6.958;2023-01-01T07:53:37;3.90;;;1.80;;
3677;SDS011;1855;50.934;6.958;2023-01-01T07:56:04;4.37;;;2.23;;
3677;SDS011;1855;50.934;6.958;2023-01-01T07:58:31;3.30;;;1.90;;
3677;SDS011;1855;50.934;6.958;2023-01-01T08:00:58;3.40;;;1.80;;
3677;SDS011;1855;50.934;6.958;2023-01-01T08:03:26;4.05;;;2.10;;
3677;SDS011;1855;50.934;6.958;2023-01-01T08:05:53;3.05;;;2.20;;
3677;SDS011;1855;50.934;6.958;2023-01-01T08:08:19;5.22;;;2.13;;
3677;SDS011;1855;50.934;6.958;2023-01-01T08:10:46;3.45;;;1.80;;
3677;SDS011;1855;50.934;6.958;2023-01-01T08:13:13;3.08;;;2.20;;
3677;SDS011;1855;50.934;6.958;2023-01-01T08:15:39;3.40;;;2.17;;
3677;SDS011;1855;50.934;6.958;2023-01-01T08:18:08;3.03;;;2.10;;
3677;SDS011;1855;50.934;6.958;2023-01-01T08:20:36;4.38;;;2.67;;
3677;SDS011;1855;50.934;6.958;2023-01-01T08:23:03;4.00;;;1.65;;
3677;SDS011;1855;50.934;6.958;2023-01-01T08:25:29;3.40;;;1.80;;
3677;SDS011;1855;50.934;6.958;2023-01-01T08:27:56;5.22;;;1.90;;
3677;SDS011;1855;50.934;6.958;2023-01-01T08:30:23;4.35;;;1.92;;
3677;SDS011;1855;50.934;6.958;2023-01-01T08:32:50;4.20;;;1.70;;
3677;SDS011;1855;50.934;6.958;2023-01-01T08:35:16;3.67;;;1.85;;
3677;SDS011;1855;50.934;6.958;2023-01-01T08:37:44;3.50;;;2.10;;
3677;SDS011;1855;50.934;6.958;2023-01-01T08:40:11;5.03;;;2.20;;
3677;SDS011;1855;50.934;6.958;2023-01-01T08:42:38;4.50;;;2.10;;
3677;SDS011;1855;50.934;6.958;2023-01-01T08:45:05;5.20;;;2.00;;
3677;SDS011;1855;50.934;6.958;2023-01-01T08:47:33;3.80;;;2.00;;
3677;SDS011;1855;50.934;6.958;2023-01-01T08:50:00;3.83;;;1.95;;
3677;SDS011;1855;50.934;6.958;2023-01-01T08:52:27;3.25;;;2.15;;
3677;SDS011;1855;50.934;6.958;2023-01-01T08:54:55;4.18;;;1.90;;
3677;SDS011;1855;50.934;6.958;2023-01-01T08:57:21;5.22;;;2.40;;
3677;SDS011;1855;50.934;6.958;2023-01-01T08:59:48;5.78;;;1.90;;
3677;SDS011;1855;50.934;6.958;2023-01-01T09:02:15;4.00;;;2.00;;
3677;SDS011;1855;50.934;6.958;2023-01-01T09:04:42;3.63;;;2.10;;
3677;SDS011;1855;50.934;6.958;2023-01-01T09:07:08;3.25;;;2.17;;
3677;SDS011;1855;50.934;6.958;2023-01-01T09:09:35;3.90;;;1.70;;
3677;SDS011;1855;50.934;6.958;2023-01-01T09:12:03;3.40;;;2.10;;
3677;SDS011;1855;50.934;6.958;2023-01-01T09:14:33;2.20;;;1.60;;
3677;SDS011;1855;50.934;6.958;2023-01-01T09:17:00;3.47;;;1.75;;
3677;SDS011;1855;50.934;6.958;2023-01-01T09:19:27;2.42;;;1.60;;
3677;SDS011;1855;50.934;6.958;2023-01-01T09:21:54;3.60;;;2.05;;
3677;SDS011;1855;50.934;6.958;2023-01-01T09:24:20;3.75;;;2.30;;
3677;SDS011;1855;50.934;6.958;2023-01-01T09:26:47;4.43;;;2.23;;
3677;SDS011;1855;50.934;6.958;2023-01-01T09:29:15;4.40;;;2.10;;
3677;SDS011;1855;50.934;6.958;2023-01-01T09:31:44;3.70;;;1.70;;
3677;SDS011;1855;50.934;6.958;2023-01-01T09:34:11;4.40;;;2.05;;
3677;SDS011;1855;50.934;6.958;2023-01-01T09:36:38;3.83;;;1.70;;
3677;SDS011;1855;50.934;6.958;2023-01-01T09:39:05;3.60;;;1.90;;
3677;SDS011;1855;50.934;6.958;2023-01-01T09:41:36;3.60;;;1.90;;
3677;SDS011;1855;50.934;6.958;2023-01-01T09:44:15;5.03;;;2.10;;
3677;SDS011;1855;50.934;6.958;2023-01-01T09:46:52;3.55;;;1.80;;
3677;SDS011;1855;50.934;6.958;2023-01-01T09:49:21;4.67;;;1.97;;
3677;SDS011;1855;50.934;6.958;2023-01-01T09:51:56;3.17;;;1.52;;
3677;SDS011;1855;50.934;6.958;2023-01-01T09:54:26;3.70;;;1.83;;
3677;SDS011;1855;50.934;6.958;2023-01-01T09:56:55;2.70;;;1.60;;
3677;SDS011;1855;50.934;6.958;2023-01-01T09:59:25;3.17;;;1.75;;
3677;SDS011;1855;50.934;6.958;2023-01-01T10:01:54;5.05;;;2.28;;
3677;SDS011;1855;50.934;6.958;2023-01-01T10:04:29;2.50;;;1.70;;
3677;SDS011;1855;50.934;6.958;2023-01-01T10:07:08;2.65;;;1.52;;
3677;SDS011;1855;50.934;6.958;2023-01-01T10:09:44;3.95;;;1.60;;
3677;SDS011;1855;50.934;6.958;2023-01-01T10:12:20;2.90;;;1.58;;
3677;SDS011;1855;50.934;6.958;2023-01-01T10:14:57;3.83;;;1.70;;
3677;SDS011;1855;50.934;6.958;2023-01-01T10:17:31;3.20;;;1.70;;
3677;SDS011;1855;50.934;6.958;2023-01-01T10:20:02;2.78;;;1.90;;
3677;SDS011;1855;50.934;6.958;2023-01-01T10:22:33;3.90;;;1.90;;
3677;SDS011;1855;50.934;6.958;2023-01-01T10:25:03;3.97;;;1.80;;
3677;SDS011;1855;50.934;6.958;2023-01-01T10:27:40;5.88;;;2.50;;
3677;SDS011;1855;50.934;6.958;2023-01-01T10:30:13;4.82;;;1.90;;
3677;SDS011;1855;50.934;6.958;2023-01-01T10:32:42;4.30;;;1.70;;
3677;SDS011;1855;50.934;6.958;2023-01-01T10:35:14;2.42;;;1.50;;
3677;SDS011;1855;50.934;6.958;2023-01-01T10:37:42;4.80;;;2.00;;
3677;SDS011;1855;50.934;6.958;2023-01-01T10:40:13;3.17;;;1.60;;
3677;SDS011;1855;50.934;6.958;2023-01-01T10:42:43;4.27;;;1.80;;
3677;SDS011;1855;50.934;6.958;2023-01-01T10:45:14;3.80;;;1.92;;
3677;SDS011;1855;50.934;6.958;2023-01-01T10:50:39;3.90;;;1.90;;
3677;SDS011;1855;50.934;6.958;2023-01-01T10:53:13;5.78;;;2.60;;
3677;SDS011;1855;50.934;6.958;2023-01-01T10:55:56;4.30;;;1.63;;
3677;SDS011;1855;50.934;6.958;2023-01-01T10:58:36;4.70;;;2.07;;
3677;SDS011;1855;50.934;6.958;2023-01-01T11:01:07;2.40;;;1.80;;
3677;SDS011;1855;50.934;6.958;2023-01-01T11:03:36;3.30;;;1.90;;
3677;SDS011;1855;50.934;6.958;2023-01-01T11:06:09;2.70;;;1.42;;
3677;SDS011;1855;50.934;6.958;2023-01-01T11:08:45;4.15;;;1.70;;
3677;SDS011;1855;50.934;6.958;2023-01-01T11:11:18;3.63;;;1.75;;
3677;SDS011;1855;50.934;6.958;2023-01-01T11:13:48;4.07;;;1.65;;
3677;SDS011;1855;50.934;6.958;2023-01-01T11:16:17;4.90;;;1.52;;
3677;SDS011;1855;50.934;6.958;2023-01-01T11:18:44;3.28;;;1.42;;
3677;SDS011;1855;50.934;6.958;2023-01-01T11:21:17;4.13;;;1.70;;
3677;SDS011;1855;50.934;6.958;2023-01-01T11:23:45;3.23;;;1.60;;
3677;SDS011;1855;50.934;6.958;2023-01-01T11:26:18;4.60;;;2.00;;
3677;SDS011;1855;50.934;6.958;2023-01-01T11:28:57;3.03;;;1.70;;
3677;SDS011;1855;50.934;6.958;2023-01-01T11:31:27;3.60;;;1.77;;
3677;SDS011;1855;50.934;6.958;2023-01-01T11:33:56;2.83;;;1.60;;
3677;SDS011;1855;50.934;6.958;2023-01-01T11:36:23;3.53;;;1.65;;
3677;SDS011;1855;50.934;6.958;2023-01-01T11:39:02;3.45;;;1.80;;
3677;SDS011;1855;50.934;6.958;2023-01-01T11:41:42;4.30;;;1.70;;
3677;SDS011;1855;50.934;6.958;2023-01-01T11:44:12;3.97;;;1.60;;
3677;SDS011;1855;50.934;6.958;2023-01-01T11:46:50;3.88;;;1.70;;
3677;SDS011;1855;50.934;6.958;2023-01-01T11:49:19;3.85;;;1.60;;
3677;SDS011;1855;50.934;6.958;2023-01-01T11:51:50;5.22;;;1.95;;
3677;SDS011;1855;50.934;6.958;2023-01-01T11:54:22;2.58;;;1.63;;
3677;SDS011;1855;50.934;6.958;2023-01-01T11:56:52;2.22;;;1.40;;
3677;SDS011;1855;50.934;6.958;2023-01-01T11:59:22;3.03;;;1.38;;
3677;SDS011;1855;50.934;6.958;2023-01-01T12:01:54;4.82;;;1.83;;
3677;SDS011;1855;50.934;6.958;2023-01-01T12:04:25;3.10;;;1.50;;
3677;SDS011;1855;50.934;6.958;2023-01-01T12:06:56;4.60;;;1.80;;
3677;SDS011;1855;50.934;6.958;2023-01-01T12:09:31;2.80;;;1.60;;
3677;SDS011;1855;50.934;6.958;2023-01-01T12:12:07;3.72;;;1.50;;
3677;SDS011;1855;50.934;6.958;2023-01-01T12:14:39;2.40;;;1.30;;
3677;SDS011;1855;50.934;6.958;2023-01-01T12:17:13;4.55;;;1.80;;
3677;SDS011;1855;50.934;6.958;2023-01-01T12:19:46;4.57;;;1.90;;
3677;SDS011;1855;50.934;6.958;2023-01-01T12:22:20;4.15;;;1.70;;
3677;SDS011;1855;50.934;6.958;2023-01-01T12:24:47;4.60;;;1.80;;
3677;SDS011;1855;50.934;6.958;2023-01-01T12:27:16;2.10;;;1.40;;
3677;SDS011;1855;50.934;6.958;2023-01-01T12:29:52;3.75;;;1.40;;
3677;SDS011;1855;50.934;6.958;2023-01-01T12:32:34;4.33;;;1.70;;
3677;SDS011;1855;50.934;6.958;2023-01-01T12:35:26;3.13;;;1.30;;
3677;SDS011;1855;50.934;6.958;2023-01-01T12:38:04;3.22;;;1.55;;
3677;SDS011;1855;50.934;6.958;2023-01-01T12:40:44;5.15;;;1.67;;
3677;SDS011;1855;50.934;6.958;2023-01-01T12:43:18;4.00;;;1.60;;
3677;SDS011;1855;50.934;6.958;2023-01-01T12:49:07;2.90;;;1.70;;
3677;SDS011;1855;50.934;6.958;2023-01-01T12:51:49;3.00;;;1.52;;
3677;SDS011;1855;50.934;6.958;2023-01-01T12:54:41;3.63;;;1.80;;
3677;SDS011;1855;50.934;6.958;2023-01-01T12:57:25;2.53;;;1.50;;
3677;SDS011;1855;50.934;6.958;2023-01-01T12:59:55;3.90;;;1.70;;
3677;SDS011;1855;50.934;6.958;2023-01-01T13:02:26;2.80;;;1.88;;
3677;SDS011;1855;50.934;6.958;2023-01-01T13:04:58;2.80;;;1.65;;
3677;SDS011;1855;50.934;6.958;2023-01-01T13:07:28;3.60;;;1.63;;
3677;SDS011;1855;50.934;6.958;2023-01-01T13:09:59;4.70;;;1.60;;
3677;SDS011;1855;50.934;6.958;2023-01-01T13:12:33;4.72;;;1.77;;
3677;SDS011;1855;50.934;6.958;2023-01-01T13:15:02;5.57;;;1.67;;
3677;SDS011;1855;50.934;6.958;2023-01-01T13:18:15;4.50;;;1.50;;
3677;SDS011;1855;50.934;6.958;2023-01-01T13:20:53;3.25;;;1.30;;
3677;SDS011;1855;50.934;6.958;2023-01-01T13:26:38;4.03;;;1.80;;
3677;SDS011;1855;50.934;6.958;2023-01-01T13:31:59;4.00;;;1.55;;
3677;SDS011;1855;50.934;6.958;2023-01-01T13:43:18;3.05;;;1.50;;
3677;SDS011;1855;50.934;6.958;2023-01-01T13:45:50;4.10;;;1.60;;
3677;SDS011;1855;50.934;6.958;2023-01-01T13:48:24;3.38;;;1.70;;
3677;SDS011;1855;50.934;6.958;2023-01-01T13:51:04;4.60;;;1.88;;
3677;SDS011;1855;50.934;6.958;2023-01-01T13:53:47;4.18;;;1.60;;
3677;SDS011;1855;50.934;6.958;2023-01-01T13:56:33;4.60;;;1.65;;
3677;SDS011;1855;50.934;6.958;2023-01-01T13:59:16;5.10;;;2.00;;
3677;SDS011;1855;50.934;6.958;2023-01-01T14:02:00;3.27;;;1.40;;
3677;SDS011;1855;50.934;6.958;2023-01-01T14:04:40;2.70;;;1.37;;
3677;SDS011;1855;50.934;6.958;2023-01-01T14:07:15;2.67;;;1.60;;
3677;SDS011;1855;50.934;6.958;2023-01-01T14:09:47;2.97;;;1.35;;
3677;SDS011;1855;50.934;6.958;2023-01-01T14:12:15;3.97;;;1.70;;
3677;SDS011;1855;50.934;6.958;2023-01-01T14:14:43;6.60;;;1.90;;
3677;SDS011;1855;50.934;6.958;2023-01-01T14:17:11;4.50;;;1.80;;
3677;SDS011;1855;50.934;6.958;2023-01-01T14:19:40;2.97;;;1.60;;
3677;SDS011;1855;50.934;6.958;2023-01-01T14:22:08;3.00;;;1.60;;
3677;SDS011;1855;50.934;6.958;2023-01-01T14:24:40;3.73;;;1.60;;
3677;SDS011;1855;50.934;6.958;2023-01-01T14:27:13;3.65;;;1.60;;
3677;SDS011;1855;50.934;6.958;2023-01-01T14:29:45;2.90;;;1.40;;
3677;SDS011;1855;50.934;6.958;2023-01-01T14:32:14;3.63;;;1.70;;
3677;SDS011;1855;50.934;6.958;2023-01-01T14:34:46;4.80;;;1.90;;
3677;SDS011;1855;50.934;6.958;2023-01-01T14:37:21;2.63;;;1.60;;
3677;SDS011;1855;50.934;6.958;2023-01-01T14:40:03;3.78;;;1.67;;
3677;SDS011;1855;50.934;6.958;2023-01-01T14:42:33;3.72;;;1.35;;
3677;SDS011;1855;50.934;6.958;2023-01-01T14:45:00;3.50;;;1.80;;
3677;SDS011;1855;50.934;6.958;2023-01-01T14:47:29;3.47;;;1.60;;
3677;SDS011;1855;50.934;6.958;2023-01-01T14:49:59;3.88;;;1.50;;
3677;SDS011;1855;50.934;6.958;2023-01-01T14:52:29;2.37;;;1.20;;
3677;SDS011;1855;50.934;6.958;2023-01-01T14:54:56;2.58;;;1.23;;
3677;SDS011;1855;50.934;6.958;2023-01-01T14:57:26;4.95;;;2.10;;
3677;SDS011;1855;50.934;6.958;2023-01-01T14:59:56;3.60;;;1.17;;
3677;SDS011;1855;50.934;6.958;2023-01-01T15:02:24;2.17;;;0.90;;
3677;SDS011;1855;50.934;6.958;2023-01-01T15:04:53;2.00;;;1.00;;
3677;SDS011;1855;50.934;6.958;2023-01-01T15:07:20;2.75;;;1.30;;
3677;SDS011;1855;50.934;6.958;2023-01-01T15:09:48;2.20;;;1.30;;
3677;SDS011;1855;50.934;6.958;2023-01-01T15:12:15;2.80;;;1.20;;
3677;SDS011;1855;50.934;6.958;2023-01-01T15:14:44;2.20;;;1.45;;
3677;SDS011;1855;50.934;6.958;2023-01-01T15:17:13;2.60;;;1.33;;
3677;SDS011;1855;50.934;6.958;2023-01-01T15:19:41;3.47;;;1.30;;
3677;SDS011;1855;50.934;6.958;2023-01-01T15:22:09;2.30;;;1.43;;
3677;SDS011;1855;50.934;6.958;2023-01-01T15:24:43;3.60;;;1.20;;
3677;SDS011;1855;50.934;6.958;2023-01-01T15:27:16;2.75;;;1.50;;
3677;SDS011;1855;50.934;6.958;2023-01-01T15:29:47;3.10;;;1.80;;
3677;SDS011;1855;50.934;6.958;2023-01-01T15:32:21;3.72;;;1.58;;
3677;SDS011;1855;50.934;6.958;2023-01-01T15:34:50;3.08;;;2.00;;
3677;SDS011;1855;50.934;6.958;2023-01-01T15:37:19;2.60;;;1.80;;
3677;SDS011;1855;50.934;6.958;2023-01-01T15:39:49;3.83;;;1.90;;
3677;SDS011;1855;50.934;6.958;2023-01-01T15:42:20;4.20;;;1.55;;
3677;SDS011;1855;50.934;6.958;2023-01-01T15:44:53;3.83;;;2.00;;
3677;SDS011;1855;50.934;6.958;2023-01-01T15:47:21;3.08;;;2.40;;
3677;SDS011;1855;50.934;6.958;2023-01-01T15:50:05;3.13;;;2.00;;
3677;SDS011;1855;50.934;6.958;2023-01-01T15:52:32;3.92;;;2.67;;
3677;SDS011;1855;50.934;6.958;2023-01-01T15:55:00;5.00;;;2.85;;
3677;SDS011;1855;50.934;6.958;2023-01-01T15:57:27;3.47;;;2.40;;